createdAt,value
2022-12-06T00:00:55.726Z,4.70
2022-12-06T00:03:22.643Z,4.70
2022-12-06T00:05:52.905Z,4.70
2022-12-06T00:08:19.975Z,4.80
2022-12-06T00:10:46.887Z,4.70
2022-12-06T00:13:13.658Z,4.80
2022-12-06T00:15:40.431Z,4.80
2022-12-06T00:18:07.316Z,4.70
2022-12-06T00:20:33.952Z,4.70
2022-12-06T00:23:00.693Z,4.70
2022-12-06T00:25:27.670Z,4.70
2022-12-06T00:27:54.830Z,4.70
2022-12-06T00:30:21.661Z,4.70
2022-12-06T00:32:48.487Z,4.70
2022-12-06T00:35:15.242Z,4.70
2022-12-06T00:37:41.912Z,4.70
2022-12-06T00:40:08.811Z,4.70
2022-12-06T00:42:35.524Z,4.60
2022-12-06T00:45:02.248Z,4.70
2022-12-06T00:47:28.883Z,4.60
2022-12-06T00:49:55.848Z,4.60
2022-12-06T00:52:22.802Z,4.60
2022-12-06T00:54:49.871Z,4.70
2022-12-06T00:57:16.598Z,4.70
2022-12-06T00:59:43.283Z,4.70
2022-12-06T01:02:09.987Z,4.60
2022-12-06T01:04:37.038Z,4.70
2022-12-06T01:07:03.933Z,4.70
2022-12-06T01:09:31.207Z,4.70
2022-12-06T01:11:58.614Z,4.70
2022-12-06T01:14:25.568Z,4.70
2022-12-06T01:16:52.754Z,4.60
2022-12-06T01:19:19.932Z,4.60
2022-12-06T01:21:48.462Z,4.70
2022-12-06T01:24:15.327Z,4.70
2022-12-06T01:26:42.212Z,4.70
2022-12-06T01:29:09.737Z,4.70
2022-12-06T01:31:38.949Z,4.70
2022-12-06T01:34:14.420Z,4.70
2022-12-06T01:36:41.150Z,4.70
2022-12-06T01:39:10.926Z,4.70
2022-12-06T01:41:38.313Z,4.70
2022-12-06T01:44:08.073Z,4.60
2022-12-06T01:46:38.318Z,4.70
2022-12-06T01:49:05.682Z,4.60
2022-12-06T01:51:32.587Z,4.60
2022-12-06T01:54:00.488Z,4.70
2022-12-06T01:56:27.683Z,4.70
2022-12-06T01:58:55.796Z,4.60
2022-12-06T02:01:23.337Z,4.60
2022-12-06T02:03:50.756Z,4.60
2022-12-06T02:06:17.804Z,4.50
2022-12-06T02:08:45.476Z,4.60
2022-12-06T02:11:12.117Z,4.50
2022-12-06T02:13:39.211Z,4.50
2022-12-06T02:16:18.366Z,4.50
2022-12-06T02:18:48.355Z,4.60
2022-12-06T02:21:18.061Z,4.60
2022-12-06T02:23:56.957Z,4.60
2022-12-06T02:26:29.641Z,4.60
2022-12-06T02:29:17.280Z,4.50
2022-12-06T02:31:43.981Z,4.60
2022-12-06T02:34:13.685Z,4.60
2022-12-06T02:36:45.803Z,4.60
2022-12-06T02:39:15.848Z,4.60
2022-12-06T02:41:45.495Z,4.50
2022-12-06T02:44:19.685Z,4.50
2022-12-06T02:46:47.707Z,4.50
2022-12-06T02:49:14.686Z,4.60
2022-12-06T02:51:41.550Z,4.60
2022-12-06T02:54:09.852Z,4.60
2022-12-06T02:56:36.670Z,4.60
2022-12-06T02:59:03.603Z,4.50
2022-12-06T03:01:32.343Z,4.50
2022-12-06T03:03:59.069Z,4.50
2022-12-06T03:06:37.582Z,4.50
2022-12-06T03:09:19.731Z,4.40
2022-12-06T03:11:55.531Z,4.40
2022-12-06T03:14:23.922Z,4.40
2022-12-06T03:17:09.228Z,4.40
2022-12-06T03:19:37.001Z,4.40
2022-12-06T03:22:09.986Z,4.40
2022-12-06T03:24:39.051Z,4.50
2022-12-06T03:27:14.262Z,4.50
2022-12-06T03:29:43.569Z,4.60
2022-12-06T03:32:12.647Z,4.50
2022-12-06T03:34:41.394Z,4.50
2022-12-06T03:37:09.971Z,4.50
2022-12-06T03:39:55.772Z,4.50
2022-12-06T03:42:22.742Z,4.50
2022-12-06T03:44:49.585Z,4.50
2022-12-06T03:47:23.158Z,4.50
2022-12-06T03:50:01.721Z,4.50
2022-12-06T03:52:29.667Z,4.50
2022-12-06T03:54:56.638Z,4.50
2022-12-06T03:57:23.827Z,4.50
2022-12-06T03:59:50.795Z,4.40
2022-12-06T04:02:17.704Z,4.50
2022-12-06T04:04:44.580Z,4.40
2022-12-06T04:07:11.760Z,4.40
2022-12-06T04:09:56.503Z,4.40
2022-12-06T04:12:42.462Z,4.40
2022-12-06T04:15:09.396Z,4.30
2022-12-06T04:17:58.539Z,4.30
2022-12-06T04:20:26.442Z,4.30
2022-12-06T04:23:06.053Z,4.30
2022-12-06T04:25:34.591Z,4.30
2022-12-06T04:28:20.397Z,4.30
2022-12-06T04:31:06.391Z,4.30
2022-12-06T04:33:54.401Z,4.30
2022-12-06T04:36:40.080Z,4.30
2022-12-06T04:39:06.771Z,4.20
2022-12-06T04:42:02.744Z,4.30
2022-12-06T04:44:29.496Z,4.20
2022-12-06T04:46:56.260Z,4.20
2022-12-06T04:49:23.008Z,4.20
2022-12-06T04:51:49.674Z,4.20
2022-12-06T04:54:16.384Z,4.20
2022-12-06T04:56:43.130Z,4.10
2022-12-06T04:59:09.891Z,4.10
2022-12-06T05:01:36.661Z,4.10
2022-12-06T05:04:03.532Z,4.10
2022-12-06T05:06:30.581Z,4.00
2022-12-06T05:08:57.407Z,4.00
2022-12-06T05:11:24.461Z,4.00
2022-12-06T05:13:51.182Z,4.00
2022-12-06T05:16:17.975Z,4.00
2022-12-06T05:18:44.686Z,4.00
2022-12-06T05:21:15.810Z,4.10
2022-12-06T05:23:42.642Z,4.10
2022-12-06T05:26:15.657Z,4.00
2022-12-06T05:28:42.934Z,4.00
2022-12-06T05:31:09.955Z,4.00
2022-12-06T05:33:37.194Z,4.10
2022-12-06T05:36:11.007Z,4.10
2022-12-06T05:38:37.698Z,4.10
2022-12-06T05:41:05.001Z,4.00
2022-12-06T05:43:31.952Z,4.10
2022-12-06T05:45:58.990Z,4.10
2022-12-06T05:48:25.921Z,4.10
2022-12-06T05:50:53.823Z,4.10
2022-12-06T05:53:21.115Z,4.00
2022-12-06T05:55:48.535Z,4.10
2022-12-06T05:58:16.083Z,4.10
2022-12-06T06:00:46.368Z,4.00
2022-12-06T06:03:13.821Z,4.00
2022-12-06T06:05:51.032Z,4.00
2022-12-06T06:08:18.682Z,4.00
2022-12-06T06:10:46.387Z,4.00
2022-12-06T06:13:13.727Z,4.00
2022-12-06T06:15:41.667Z,3.90
2022-12-06T06:18:09.478Z,4.00
2022-12-06T06:20:39.569Z,4.00
2022-12-06T06:23:07.617Z,4.00
2022-12-06T06:25:40.191Z,4.00
2022-12-06T06:28:10.747Z,4.00
2022-12-06T06:30:41.229Z,4.00
2022-12-06T06:33:11.069Z,4.00
2022-12-06T06:35:45.720Z,4.00
2022-12-06T06:38:17.701Z,3.90
2022-12-06T06:40:47.895Z,3.90
2022-12-06T06:43:24.621Z,3.90
2022-12-06T06:45:57.630Z,3.90
2022-12-06T06:48:25.430Z,3.90
2022-12-06T06:50:57.057Z,3.80
2022-12-06T06:53:26.359Z,3.80
2022-12-06T06:55:54.250Z,3.80
2022-12-06T06:58:21.105Z,3.80
2022-12-06T07:00:52.093Z,3.90
2022-12-06T07:03:20.298Z,4.00
2022-12-06T07:05:53.937Z,4.00
2022-12-06T07:08:20.717Z,4.00
2022-12-06T07:10:48.763Z,4.00
2022-12-06T07:13:18.774Z,4.00
2022-12-06T07:15:45.395Z,4.00
2022-12-06T07:18:12.042Z,4.00
2022-12-06T07:20:38.681Z,3.90
2022-12-06T07:23:05.401Z,3.90
2022-12-06T07:25:32.407Z,3.90
2022-12-06T07:27:59.089Z,4.00
2022-12-06T07:30:27.676Z,4.00
2022-12-06T07:32:54.791Z,4.00
2022-12-06T07:35:21.865Z,4.00
2022-12-06T07:37:48.616Z,4.00
2022-12-06T07:40:16.070Z,4.00
2022-12-06T07:43:01.205Z,4.00
2022-12-06T07:45:27.881Z,4.00
2022-12-06T07:47:55.950Z,4.10
2022-12-06T07:50:23.123Z,4.00
2022-12-06T07:52:50.625Z,4.10
2022-12-06T07:55:18.001Z,4.00
2022-12-06T07:57:44.656Z,4.10
2022-12-06T08:00:12.533Z,4.00
2022-12-06T08:02:39.382Z,4.00
2022-12-06T08:05:06.150Z,4.00
2022-12-06T08:07:32.943Z,4.10
2022-12-06T08:09:59.932Z,4.10
2022-12-06T08:12:29.381Z,4.10
2022-12-06T08:14:59.577Z,4.10
2022-12-06T08:17:27.252Z,4.20
2022-12-06T08:19:53.980Z,4.10
2022-12-06T08:22:20.971Z,4.10
2022-12-06T08:24:47.873Z,4.10
2022-12-06T08:27:14.886Z,4.10
2022-12-06T08:29:41.584Z,4.10
2022-12-06T08:32:08.263Z,4.10
2022-12-06T08:34:34.995Z,4.10
2022-12-06T08:37:03.613Z,4.20
2022-12-06T08:39:30.639Z,4.20
2022-12-06T08:42:00.011Z,4.20
2022-12-06T08:44:27.442Z,4.30
2022-12-06T08:46:54.906Z,4.30
2022-12-06T08:49:22.894Z,4.30
2022-12-06T08:51:49.637Z,4.30
2022-12-06T08:54:17.453Z,4.30
2022-12-06T08:56:44.445Z,4.30
2022-12-06T08:59:11.118Z,4.30
2022-12-06T09:01:38.689Z,4.30
2022-12-06T09:04:06.845Z,4.40
2022-12-06T09:06:33.710Z,4.40
2022-12-06T09:09:00.344Z,4.50
2022-12-06T09:11:27.205Z,4.60
2022-12-06T09:13:53.966Z,4.60
2022-12-06T09:16:21.869Z,4.70
2022-12-06T09:18:49.100Z,4.70
2022-12-06T09:21:17.757Z,4.80
2022-12-06T09:23:44.723Z,4.80
2022-12-06T09:26:11.816Z,4.90
2022-12-06T09:28:39.482Z,5.00
2022-12-06T09:31:06.864Z,5.10
2022-12-06T09:33:33.931Z,5.10
2022-12-06T09:36:02.108Z,5.20
2022-12-06T09:38:30.779Z,5.20
2022-12-06T09:41:09.589Z,5.30
2022-12-06T09:43:42.305Z,5.30
2022-12-06T09:46:27.723Z,5.40
2022-12-06T09:49:13.380Z,5.50
2022-12-06T09:51:58.917Z,5.50
2022-12-06T09:54:33.803Z,5.60
2022-12-06T09:57:18.329Z,5.70
2022-12-06T09:59:57.275Z,5.80
2022-12-06T10:02:35.205Z,5.80
2022-12-06T10:05:19.208Z,5.90
2022-12-06T10:07:56.147Z,5.90
2022-12-06T10:10:35.408Z,5.90
2022-12-06T10:13:10.735Z,5.90
2022-12-06T10:15:47.003Z,5.90
2022-12-06T10:18:20.444Z,5.90
2022-12-06T10:20:52.826Z,6.00
2022-12-06T10:23:22.646Z,6.10
2022-12-06T10:26:04.676Z,6.10
2022-12-06T10:28:40.650Z,6.20
2022-12-06T10:31:12.508Z,6.30
2022-12-06T10:33:56.275Z,6.30
2022-12-06T10:36:33.700Z,6.30
2022-12-06T10:39:09.885Z,6.40
2022-12-06T10:41:40.109Z,6.50
2022-12-06T10:44:15.891Z,6.60
2022-12-06T10:47:04.232Z,6.60
2022-12-06T10:49:36.920Z,6.70
2022-12-06T10:52:03.602Z,6.80
2022-12-06T10:54:37.334Z,6.80
2022-12-06T10:57:07.414Z,6.90
2022-12-06T10:59:37.102Z,6.90
2022-12-06T11:02:21.796Z,6.80
2022-12-06T11:04:49.002Z,6.80
2022-12-06T11:07:22.600Z,6.90
2022-12-06T11:09:51.258Z,7.00
2022-12-06T11:12:21.953Z,7.10
2022-12-06T11:14:54.247Z,7.30
2022-12-06T11:17:29.747Z,7.40
2022-12-06T11:20:15.318Z,7.50
2022-12-06T11:23:06.095Z,7.60
2022-12-06T11:25:46.184Z,7.60
2022-12-06T11:28:31.290Z,7.60
2022-12-06T11:30:58.428Z,7.50
2022-12-06T11:33:34.635Z,7.40
2022-12-06T11:36:02.473Z,7.40
2022-12-06T11:38:29.636Z,7.50
2022-12-06T11:40:58.047Z,7.40
2022-12-06T11:43:27.199Z,7.40
2022-12-06T11:45:55.019Z,7.40
2022-12-06T11:48:22.998Z,7.40
2022-12-06T11:50:50.393Z,7.30
2022-12-06T11:53:26.940Z,7.20
2022-12-06T11:55:55.623Z,7.20
2022-12-06T11:58:22.410Z,7.20
2022-12-06T12:01:15.525Z,7.20
2022-12-06T12:03:43.885Z,7.20
2022-12-06T12:06:26.925Z,7.20
2022-12-06T12:08:55.349Z,7.30
2022-12-06T12:11:23.770Z,7.30
2022-12-06T12:13:55.945Z,7.30
2022-12-06T12:16:24.139Z,7.20
2022-12-06T12:18:53.668Z,7.20
2022-12-06T12:21:40.591Z,7.30
2022-12-06T12:24:25.784Z,7.30
2022-12-06T12:26:52.524Z,7.10
2022-12-06T12:29:20.267Z,7.10
2022-12-06T12:31:57.655Z,7.00
2022-12-06T12:34:28.756Z,7.00
2022-12-06T12:37:02.751Z,7.00
2022-12-06T12:39:48.389Z,6.90
2022-12-06T12:42:28.135Z,6.90
2022-12-06T12:44:57.495Z,7.00
2022-12-06T12:47:24.659Z,6.90
2022-12-06T12:50:02.388Z,6.90
2022-12-06T12:52:31.049Z,6.90
2022-12-06T12:54:59.705Z,7.10
2022-12-06T12:57:26.869Z,7.10
2022-12-06T12:59:53.589Z,7.10
2022-12-06T13:02:23.225Z,7.20
2022-12-06T13:05:05.063Z,7.30
2022-12-06T13:07:41.272Z,7.30
2022-12-06T13:10:12.532Z,7.30
2022-12-06T13:12:54.632Z,7.20
2022-12-06T13:15:21.375Z,6.90
2022-12-06T13:17:53.863Z,6.90
2022-12-06T13:20:29.065Z,6.90
2022-12-06T13:22:58.252Z,6.90
2022-12-06T13:25:25.018Z,6.90
2022-12-06T13:27:53.668Z,6.90
2022-12-06T13:30:23.664Z,6.80
2022-12-06T13:32:53.035Z,6.90
2022-12-06T13:35:40.374Z,7.00
2022-12-06T13:38:25.855Z,7.00
2022-12-06T13:40:56.784Z,7.00
2022-12-06T13:43:23.420Z,7.00
2022-12-06T13:45:50.247Z,6.90
2022-12-06T13:48:25.986Z,6.80
2022-12-06T13:50:53.172Z,6.80
2022-12-06T13:53:21.005Z,6.70
2022-12-06T13:55:54.664Z,6.80
2022-12-06T13:58:24.521Z,6.80
2022-12-06T14:00:51.539Z,6.80
2022-12-06T14:03:18.832Z,6.90
2022-12-06T14:06:06.008Z,6.80
2022-12-06T14:08:42.409Z,6.80
2022-12-06T14:11:15.474Z,6.70
2022-12-06T14:13:44.484Z,6.70
2022-12-06T14:16:16.191Z,6.60
2022-12-06T14:18:46.443Z,6.60
2022-12-06T14:21:23.652Z,6.60
2022-12-06T14:23:50.761Z,6.50
2022-12-06T14:26:25.804Z,6.40
2022-12-06T14:28:53.361Z,6.40
2022-12-06T14:31:25.003Z,6.40
2022-12-06T14:33:52.754Z,6.30
2022-12-06T14:36:28.250Z,6.30
2022-12-06T14:39:00.721Z,6.30
2022-12-06T14:41:51.579Z,6.30
2022-12-06T14:44:19.009Z,6.30
2022-12-06T14:46:46.660Z,6.20
2022-12-06T14:49:34.264Z,6.20
2022-12-06T14:52:00.973Z,6.10
2022-12-06T14:54:27.643Z,6.10
2022-12-06T14:56:54.390Z,6.00
2022-12-06T14:59:47.319Z,6.00
2022-12-06T15:02:24.787Z,6.00
2022-12-06T15:04:51.900Z,6.00
2022-12-06T15:07:32.119Z,6.00
2022-12-06T15:10:08.296Z,6.00
2022-12-06T15:12:55.154Z,5.90
2022-12-06T15:15:31.116Z,5.90
2022-12-06T15:18:10.354Z,5.90
2022-12-06T15:20:37.177Z,5.80
2022-12-06T15:23:18.268Z,5.80
2022-12-06T15:25:45.190Z,5.70
2022-12-06T15:28:16.816Z,5.70
2022-12-06T15:30:46.698Z,5.70
2022-12-06T15:33:17.832Z,5.70
2022-12-06T15:35:45.040Z,5.70
2022-12-06T15:38:12.523Z,5.60
2022-12-06T15:40:40.920Z,5.60
2022-12-06T15:43:20.734Z,5.60
2022-12-06T15:45:47.776Z,5.50
2022-12-06T15:48:14.871Z,5.50
2022-12-06T15:50:42.638Z,5.60
2022-12-06T15:53:18.881Z,5.50
2022-12-06T15:55:45.638Z,5.40
2022-12-06T15:58:12.707Z,5.40
2022-12-06T16:00:39.442Z,5.40
2022-12-06T16:03:11.237Z,5.30
2022-12-06T16:05:38.087Z,5.30
2022-12-06T16:08:05.002Z,5.30
2022-12-06T16:10:55.586Z,5.30
2022-12-06T16:13:22.081Z,5.20
2022-12-06T16:15:50.765Z,5.30
2022-12-06T16:18:17.850Z,5.20
2022-12-06T16:20:44.870Z,5.20
2022-12-06T16:24:11.910Z,5.20
2022-12-06T16:26:33.990Z,5.10
2022-12-06T16:29:01.862Z,5.10
2022-12-06T16:31:29.151Z,5.10
2022-12-06T16:33:56.252Z,5.10
2022-12-06T16:36:24.564Z,5.00
2022-12-06T16:38:54.249Z,5.00
2022-12-06T16:41:24.191Z,5.00
2022-12-06T16:43:52.889Z,5.00
2022-12-06T16:46:20.424Z,5.00
2022-12-06T16:48:51.251Z,5.00
2022-12-06T16:51:24.193Z,5.00
2022-12-06T16:53:51.167Z,5.00
2022-12-06T16:56:18.304Z,5.00
2022-12-06T16:58:45.531Z,4.90
2022-12-06T17:01:21.864Z,4.90
2022-12-06T17:03:53.408Z,4.90
2022-12-06T17:06:20.704Z,4.90
2022-12-06T17:08:47.662Z,4.90
2022-12-06T17:11:34.884Z,4.90
2022-12-06T17:14:02.580Z,4.90
2022-12-06T17:16:30.907Z,4.90
2022-12-06T17:18:57.875Z,4.90
2022-12-06T17:21:25.228Z,4.80
2022-12-06T17:23:52.342Z,4.80
2022-12-06T17:26:19.875Z,4.80
2022-12-06T17:28:47.003Z,4.90
2022-12-06T17:31:14.465Z,4.90
2022-12-06T17:33:41.284Z,4.90
2022-12-06T17:36:08.734Z,4.80
2022-12-06T17:38:35.453Z,4.80
2022-12-06T17:41:22.136Z,4.80
2022-12-06T17:43:49.120Z,4.80
2022-12-06T17:46:15.868Z,4.80
2022-12-06T17:48:44.767Z,4.80
2022-12-06T17:51:11.739Z,4.80
2022-12-06T17:53:38.544Z,4.80
2022-12-06T17:56:23.991Z,4.80
2022-12-06T17:58:51.445Z,4.80
2022-12-06T18:01:18.151Z,4.80
2022-12-06T18:03:45.053Z,4.80
2022-12-06T18:06:11.815Z,4.90
2022-12-06T18:08:38.501Z,4.90
2022-12-06T18:11:06.718Z,4.90
2022-12-06T18:13:33.385Z,4.90
2022-12-06T18:16:00.126Z,4.90
2022-12-06T18:18:26.814Z,4.90
2022-12-06T18:20:53.694Z,5.00
2022-12-06T18:23:20.367Z,5.00
2022-12-06T18:25:47.274Z,5.00
2022-12-06T18:28:13.922Z,5.00
2022-12-06T18:30:41.246Z,5.00
2022-12-06T18:33:08.448Z,4.90
2022-12-06T18:35:35.970Z,4.90
2022-12-06T18:38:02.675Z,4.90
2022-12-06T18:40:31.329Z,4.90
2022-12-06T18:42:57.954Z,4.90
2022-12-06T18:45:24.960Z,4.90
2022-12-06T18:47:51.676Z,4.80
2022-12-06T18:50:18.404Z,4.80
2022-12-06T18:52:45.053Z,4.80
2022-12-06T18:55:11.658Z,4.70
2022-12-06T18:57:38.687Z,4.70
2022-12-06T19:00:06.521Z,4.70
2022-12-06T19:02:33.359Z,4.70
2022-12-06T19:05:00.812Z,4.70
2022-12-06T19:07:28.003Z,4.70
2022-12-06T19:09:54.849Z,4.70
2022-12-06T19:12:21.612Z,4.70
2022-12-06T19:14:48.331Z,4.70
2022-12-06T19:17:16.231Z,4.70
2022-12-06T19:19:43.124Z,4.60
2022-12-06T19:22:09.825Z,4.70
2022-12-06T19:24:36.661Z,4.60
2022-12-06T19:27:03.500Z,4.60
2022-12-06T19:29:30.500Z,4.60
2022-12-06T19:31:57.341Z,4.60
2022-12-06T19:34:25.617Z,4.60
2022-12-06T19:36:53.159Z,4.60
2022-12-06T19:39:20.521Z,4.70
2022-12-06T19:42:06.067Z,4.60
2022-12-06T19:44:32.888Z,4.60
2022-12-06T19:46:59.602Z,4.50
2022-12-06T19:49:27.078Z,4.50
2022-12-06T19:51:53.933Z,4.50
2022-12-06T19:54:22.574Z,4.50
2022-12-06T19:56:50.581Z,4.40
2022-12-06T19:59:17.411Z,4.40
2022-12-06T20:01:44.893Z,4.40
2022-12-06T20:04:15.899Z,4.40
2022-12-06T20:06:42.930Z,4.40
2022-12-06T20:09:10.235Z,4.50
2022-12-06T20:11:56.502Z,4.50
2022-12-06T20:14:23.704Z,4.40
2022-12-06T20:16:51.314Z,4.30
2022-12-06T20:19:18.553Z,4.20
2022-12-06T20:21:45.868Z,4.20
2022-12-06T20:24:13.452Z,4.20
2022-12-06T20:26:40.801Z,4.20
2022-12-06T20:29:07.931Z,4.20
2022-12-06T20:31:35.846Z,4.30
2022-12-06T20:34:03.612Z,4.20
2022-12-06T20:36:31.855Z,4.20
2022-12-06T20:38:59.173Z,4.20
2022-12-06T20:41:27.233Z,4.20
2022-12-06T20:43:53.880Z,4.30
2022-12-06T20:46:23.036Z,4.20
2022-12-06T20:48:49.744Z,4.30
2022-12-06T20:51:17.440Z,4.30
2022-12-06T20:53:47.596Z,4.30
2022-12-06T20:56:17.242Z,4.30
2022-12-06T20:58:48.963Z,4.40
2022-12-06T21:01:19.280Z,4.40
2022-12-06T21:03:46.470Z,4.40
2022-12-06T21:06:13.297Z,4.30
2022-12-06T21:08:40.069Z,4.40
2022-12-06T21:11:22.740Z,4.30
2022-12-06T21:13:53.999Z,4.30
2022-12-06T21:16:22.633Z,4.30
2022-12-06T21:18:53.863Z,4.30
2022-12-06T21:21:22.754Z,4.30
2022-12-06T21:23:49.689Z,4.20
2022-12-06T21:26:16.569Z,4.10
2022-12-06T21:28:43.348Z,4.10
2022-12-06T21:31:10.187Z,3.90
2022-12-06T21:33:37.014Z,3.90
2022-12-06T21:36:05.538Z,3.80
2022-12-06T21:38:32.879Z,3.80
2022-12-06T21:41:03.597Z,3.80
2022-12-06T21:43:30.456Z,3.80
2022-12-06T21:46:02.508Z,3.80
2022-12-06T21:48:29.362Z,3.80
2022-12-06T21:50:59.892Z,3.80
2022-12-06T21:53:26.578Z,3.70
2022-12-06T21:55:53.263Z,3.60
2022-12-06T21:58:20.258Z,3.70
2022-12-06T22:00:46.954Z,3.60
2022-12-06T22:03:19.174Z,3.60
2022-12-06T22:05:49.540Z,3.60
2022-12-06T22:08:16.286Z,3.60
2022-12-06T22:10:42.950Z,3.60
2022-12-06T22:13:09.774Z,3.60
2022-12-06T22:15:36.725Z,3.70
2022-12-06T22:18:03.610Z,3.70
2022-12-06T22:20:30.319Z,3.70
2022-12-06T22:22:56.992Z,3.70
2022-12-06T22:25:23.822Z,3.60
2022-12-06T22:27:51.544Z,3.60
2022-12-06T22:30:18.418Z,3.60
2022-12-06T22:32:45.120Z,3.50
2022-12-06T22:35:11.778Z,3.50
2022-12-06T22:37:38.506Z,3.50
2022-12-06T22:40:05.575Z,3.50
2022-12-06T22:42:32.441Z,3.40
2022-12-06T22:44:59.131Z,3.40
2022-12-06T22:47:25.767Z,3.40
2022-12-06T22:49:52.470Z,3.40
2022-12-06T22:52:19.090Z,3.40
2022-12-06T22:54:46.317Z,3.30
2022-12-06T22:57:13.013Z,3.30
2022-12-06T22:59:39.773Z,3.40
2022-12-06T23:02:06.461Z,3.40
2022-12-06T23:04:33.301Z,3.30
2022-12-06T23:06:59.927Z,3.40
2022-12-06T23:09:26.663Z,3.30
2022-12-06T23:11:53.489Z,3.30
2022-12-06T23:14:20.228Z,3.30
2022-12-06T23:16:46.900Z,3.30
2022-12-06T23:19:13.815Z,3.30
2022-12-06T23:21:42.394Z,3.30
2022-12-06T23:24:10.675Z,3.40
2022-12-06T23:26:38.822Z,3.30
2022-12-06T23:29:06.077Z,3.30
2022-12-06T23:31:37.439Z,3.40
2022-12-06T23:34:08.475Z,3.40
2022-12-06T23:36:36.178Z,3.40
2022-12-06T23:39:06.275Z,3.40
2022-12-06T23:41:35.878Z,3.30
2022-12-06T23:44:03.015Z,3.30
2022-12-06T23:46:30.810Z,3.30
2022-12-06T23:48:57.673Z,3.40
2022-12-06T23:51:25.992Z,3.40
2022-12-06T23:53:53.829Z,3.40
2022-12-06T23:56:21.384Z,3.40
2022-12-06T23:58:50.245Z,3.40
